Santiago, MN (55377)

11:40 PM CDT on October 24, 2014 (GMT -0500)
Princeton Municipal | Change Station
CLOSE
Current Station
Airport
Location: Princeton,
Elevation: 978 ft
Nearby Weather Stations

Elev 978 ft 45.56 °N, 93.61 °W | Updated 6 minutes ago

Clear
Clear
57 °F
Feels Like 57 °F
N
6
Wind Variable Wind from West

Today
High -- | Low -- °F
--% Chance of Precip.
Yesterday
High -- | Low -- °F
Precip. -- in
7:43 AM 6:14 PM
New Moon, 2% visible
Pressure 29.87 in
Visibility 10.0 miles
Clouds Clear
Dew Point 45 °F
Humidity 63%
Rainfall 0.00 in
Snow Depth Not available.
UV 0 out of 12
Pollen 1.70 out of 12
Ozone Good
PM2.5 Moderate
Flu Activity Sporadic
METAR KPNM 250434Z AUTO 26005KT 10SM CLR 14/07 A2987 RMK AO2

More Conditions Fewer Conditions

Pressure 29.87 in
Visibility 10.0 miles
Clouds Clear
Dew Point 45 °F
Humidity 63%
Rainfall 0.00 in
Snow Depth Not available.
UV 0 out of 12
Pollen 1.70 out of 12
Ozone Good
PM2.5 Moderate
Flu Activity Sporadic
METAR KPNM 250434Z AUTO 26005KT 10SM CLR 14/07 A2987 RMK AO2

More Conditions Fewer Conditions

10-Day Weather Forecast

Almanac

Astronomy

Oct. 24, 2014 Rise Set
Actual Time 7:43 AM CDT 6:14 PM CDT
Civil Twilight 7:13 AM CDT 6:44 PM CDT
Nautical Twilight 6:38 AM CDT 7:19 PM CDT
Astronomical Twilight 6:04 AM CDT 7:53 PM CDT
Moon 8:25 AM CDT (10/24) 6:52 PM CDT (10/24)
Length of Visible Light 11h 31m
Length of Day
10h 30m
Tomorrow will be 2m 59s shorter.
New Moon, 2% of the Moon is Illuminated
Oct 25
New Moon
Oct 30
First Quarter
Nov 6
Full
Nov 14
Last Quarter
Nov 22
New

Yesterday's Extremes

State Highs State Lows

Community

WunderPhotos

Upload Photos

1,764,784 photos uploaded!

Nearby

Air Quality

  Air Quality AQ Index Pollutant
Yesterday Good
PM2.5
Yesterday Good
OZONE
Current Moderate
PM2.5
Current Good
OZONE
Friday Good
PM2.5
Saturday Good
PM2.5
Sunday Moderate
PM2.5
Monday Good
PM2.5
Tuesday Good
PM2.5
Wednesday Good
PM2.5

Snow Depth

Station Depth Elevation
No new snow has been reported.

Earthquake Activity

City Distance Mag. Time & Date
No recent earthquake activity has been reported nearby.
Minimum magnitude displayed is 2.5.

Coastal Water Temperatures

Place Temperature
No Stations Reporting

Nearby Weather Stations